sensor_id;sensor_type;location;lat;lon;timestamp;P1;durP1;ratioP1;P2;durP2;ratioP2
25409;SDS011;13339;50.840;4.346;2023-03-23T00:00:45;8.47;;;6.03;;
25409;SDS011;13339;50.840;4.346;2023-03-23T00:03:10;12.10;;;6.67;;
25409;SDS011;13339;50.840;4.346;2023-03-23T00:05:37;8.27;;;6.17;;
25409;SDS011;13339;50.840;4.346;2023-03-23T00:08:06;9.37;;;6.10;;
25409;SDS011;13339;50.840;4.346;2023-03-23T00:10:34;10.53;;;5.57;;
25409;SDS011;13339;50.840;4.346;2023-03-23T00:13:00;5.93;;;5.23;;
25409;SDS011;13339;50.840;4.346;2023-03-23T00:15:29;6.60;;;5.80;;
25409;SDS011;13339;50.840;4.346;2023-03-23T00:17:58;7.97;;;5.10;;
25409;SDS011;13339;50.840;4.346;2023-03-23T00:20:29;8.53;;;5.30;;
25409;SDS011;13339;50.840;4.346;2023-03-23T00:22:55;7.90;;;5.50;;
25409;SDS011;13339;50.840;4.346;2023-03-23T00:25:25;8.90;;;5.40;;
25409;SDS011;13339;50.840;4.346;2023-03-23T00:27:51;6.50;;;4.67;;
25409;SDS011;13339;50.840;4.346;2023-03-23T00:30:16;5.80;;;4.93;;
25409;SDS011;13339;50.840;4.346;2023-03-23T00:32:42;10.20;;;5.57;;
25409;SDS011;13339;50.840;4.346;2023-03-23T00:35:08;9.27;;;4.90;;
25409;SDS011;13339;50.840;4.346;2023-03-23T00:37:34;7.37;;;5.33;;
25409;SDS011;13339;50.840;4.346;2023-03-23T00:40:00;6.03;;;4.77;;
25409;SDS011;13339;50.840;4.346;2023-03-23T00:42:30;6.83;;;4.83;;
25409;SDS011;13339;50.840;4.346;2023-03-23T00:45:01;5.10;;;4.60;;
25409;SDS011;13339;50.840;4.346;2023-03-23T00:47:27;6.03;;;5.00;;
25409;SDS011;13339;50.840;4.346;2023-03-23T00:49:53;7.03;;;5.17;;
25409;SDS011;13339;50.840;4.346;2023-03-23T00:52:21;4.90;;;4.40;;
25409;SDS011;13339;50.840;4.346;2023-03-23T00:54:46;10.50;;;5.03;;
25409;SDS011;13339;50.840;4.346;2023-03-23T00:57:13;5.83;;;5.10;;
25409;SDS011;13339;50.840;4.346;2023-03-23T00:59:38;9.07;;;4.70;;
25409;SDS011;13339;50.840;4.346;2023-03-23T01:02:04;6.83;;;4.90;;
25409;SDS011;13339;50.840;4.346;2023-03-23T01:04:29;6.00;;;4.80;;
25409;SDS011;13339;50.840;4.346;2023-03-23T01:06:56;5.93;;;5.20;;
25409;SDS011;13339;50.840;4.346;2023-03-23T01:09:25;6.47;;;4.87;;
25409;SDS011;13339;50.840;4.346;2023-03-23T01:11:51;5.43;;;4.80;;
25409;SDS011;13339;50.840;4.346;2023-03-23T01:14:20;10.60;;;5.07;;
25409;SDS011;13339;50.840;4.346;2023-03-23T01:16:46;7.30;;;5.30;;
25409;SDS011;13339;50.840;4.346;2023-03-23T01:19:11;5.27;;;4.77;;
25409;SDS011;13339;50.840;4.346;2023-03-23T01:21:38;7.03;;;5.20;;
25409;SDS011;13339;50.840;4.346;2023-03-23T01:24:03;7.33;;;4.97;;
25409;SDS011;13339;50.840;4.346;2023-03-23T01:26:30;9.53;;;5.70;;
25409;SDS011;13339;50.840;4.346;2023-03-23T01:28:56;7.97;;;4.70;;
25409;SDS011;13339;50.840;4.346;2023-03-23T01:31:22;5.70;;;5.03;;
25409;SDS011;13339;50.840;4.346;2023-03-23T01:33:49;8.33;;;5.03;;
25409;SDS011;13339;50.840;4.346;2023-03-23T01:36:17;5.27;;;4.40;;
25409;SDS011;13339;50.840;4.346;2023-03-23T01:38:48;6.93;;;4.90;;
25409;SDS011;13339;50.840;4.346;2023-03-23T01:41:15;7.67;;;5.33;;
25409;SDS011;13339;50.840;4.346;2023-03-23T01:46:32;7.40;;;4.90;;
25409;SDS011;13339;50.840;4.346;2023-03-23T01:49:10;6.77;;;5.53;;
25409;SDS011;13339;50.840;4.346;2023-03-23T01:51:40;7.30;;;4.63;;
25409;SDS011;13339;50.840;4.346;2023-03-23T01:54:12;6.27;;;4.50;;
25409;SDS011;13339;50.840;4.346;2023-03-23T01:56:45;7.33;;;4.67;;
25409;SDS011;13339;50.840;4.346;2023-03-23T01:59:32;4.67;;;4.23;;
25409;SDS011;13339;50.840;4.346;2023-03-23T02:01:59;7.70;;;5.37;;
25409;SDS011;13339;50.840;4.346;2023-03-23T02:04:27;7.80;;;4.80;;
25409;SDS011;13339;50.840;4.346;2023-03-23T02:06:53;7.00;;;4.70;;
25409;SDS011;13339;50.840;4.346;2023-03-23T02:09:21;8.23;;;4.50;;
25409;SDS011;13339;50.840;4.346;2023-03-23T02:11:47;8.67;;;4.33;;
25409;SDS011;13339;50.840;4.346;2023-03-23T02:14:15;7.00;;;3.93;;
25409;SDS011;13339;50.840;4.346;2023-03-23T02:25:52;4.47;;;2.80;;
25409;SDS011;13339;50.840;4.346;2023-03-23T02:33:54;6.60;;;2.80;;
25409;SDS011;13339;50.840;4.346;2023-03-23T02:36:45;7.07;;;2.53;;
25409;SDS011;13339;50.840;4.346;2023-03-23T02:39:18;4.13;;;2.43;;
25409;SDS011;13339;50.840;4.346;2023-03-23T02:41:58;5.80;;;2.37;;
25409;SDS011;13339;50.840;4.346;2023-03-23T02:44:29;5.20;;;2.53;;
25409;SDS011;13339;50.840;4.346;2023-03-23T02:46:57;4.90;;;2.30;;
25409;SDS011;13339;50.840;4.346;2023-03-23T02:49:25;3.97;;;2.23;;
25409;SDS011;13339;50.840;4.346;2023-03-23T02:51:54;4.83;;;1.90;;
25409;SDS011;13339;50.840;4.346;2023-03-23T02:54:23;3.20;;;2.00;;
25409;SDS011;13339;50.840;4.346;2023-03-23T02:56:51;3.93;;;1.93;;
25409;SDS011;13339;50.840;4.346;2023-03-23T02:59:19;3.80;;;2.10;;
25409;SDS011;13339;50.840;4.346;2023-03-23T03:01:52;3.00;;;1.67;;
25409;SDS011;13339;50.840;4.346;2023-03-23T03:04:22;3.83;;;1.87;;
25409;SDS011;13339;50.840;4.346;2023-03-23T03:09:50;4.10;;;1.90;;
25409;SDS011;13339;50.840;4.346;2023-03-23T03:15:09;4.67;;;1.40;;
25409;SDS011;13339;50.840;4.346;2023-03-23T03:17:36;5.13;;;1.63;;
25409;SDS011;13339;50.840;4.346;2023-03-23T03:20:08;6.70;;;1.60;;
25409;SDS011;13339;50.840;4.346;2023-03-23T03:22:37;10.37;;;2.03;;
25409;SDS011;13339;50.840;4.346;2023-03-23T03:25:07;6.53;;;1.43;;
25409;SDS011;13339;50.840;4.346;2023-03-23T03:27:34;3.77;;;1.53;;
25409;SDS011;13339;50.840;4.346;2023-03-23T03:30:01;2.77;;;1.67;;
25409;SDS011;13339;50.840;4.346;2023-03-23T03:32:31;6.80;;;1.50;;
25409;SDS011;13339;50.840;4.346;2023-03-23T03:35:06;5.03;;;1.63;;
25409;SDS011;13339;50.840;4.346;2023-03-23T03:37:35;4.20;;;1.73;;
25409;SDS011;13339;50.840;4.346;2023-03-23T03:40:03;6.60;;;1.67;;
25409;SDS011;13339;50.840;4.346;2023-03-23T03:42:35;5.63;;;2.27;;
25409;SDS011;13339;50.840;4.346;2023-03-23T03:45:02;6.27;;;2.00;;
25409;SDS011;13339;50.840;4.346;2023-03-23T03:47:28;3.60;;;1.50;;
25409;SDS011;13339;50.840;4.346;2023-03-23T03:49:53;7.50;;;1.90;;
25409;SDS011;13339;50.840;4.346;2023-03-23T03:52:19;4.07;;;1.60;;
25409;SDS011;13339;50.840;4.346;2023-03-23T03:54:44;7.60;;;2.10;;
25409;SDS011;13339;50.840;4.346;2023-03-23T03:57:11;7.40;;;2.10;;
25409;SDS011;13339;50.840;4.346;2023-03-23T03:59:37;5.90;;;1.53;;
25409;SDS011;13339;50.840;4.346;2023-03-23T04:02:02;5.67;;;1.90;;
25409;SDS011;13339;50.840;4.346;2023-03-23T04:04:28;9.20;;;1.90;;
25409;SDS011;13339;50.840;4.346;2023-03-23T04:06:54;4.37;;;1.80;;
25409;SDS011;13339;50.840;4.346;2023-03-23T04:09:20;6.87;;;2.20;;
25409;SDS011;13339;50.840;4.346;2023-03-23T04:11:46;9.83;;;2.07;;
25409;SDS011;13339;50.840;4.346;2023-03-23T04:14:11;6.77;;;2.10;;
25409;SDS011;13339;50.840;4.346;2023-03-23T04:16:37;6.97;;;1.93;;
25409;SDS011;13339;50.840;4.346;2023-03-23T04:19:03;6.33;;;1.97;;
25409;SDS011;13339;50.840;4.346;2023-03-23T04:21:28;7.37;;;2.00;;
25409;SDS011;13339;50.840;4.346;2023-03-23T04:23:57;4.87;;;1.67;;
25409;SDS011;13339;50.840;4.346;2023-03-23T04:26:24;6.33;;;1.73;;
25409;SDS011;13339;50.840;4.346;2023-03-23T04:28:51;7.00;;;1.93;;
25409;SDS011;13339;50.840;4.346;2023-03-23T04:31:17;9.60;;;2.17;;
25409;SDS011;13339;50.840;4.346;2023-03-23T04:33:42;7.23;;;1.80;;
25409;SDS011;13339;50.840;4.346;2023-03-23T04:36:08;5.37;;;2.50;;
25409;SDS011;13339;50.840;4.346;2023-03-23T04:38:34;5.63;;;2.00;;
25409;SDS011;13339;50.840;4.346;2023-03-23T04:40:59;5.50;;;1.80;;
25409;SDS011;13339;50.840;4.346;2023-03-23T04:43:27;6.70;;;2.23;;
25409;SDS011;13339;50.840;4.346;2023-03-23T04:45:57;5.93;;;1.57;;
25409;SDS011;13339;50.840;4.346;2023-03-23T04:48:25;5.03;;;1.80;;
25409;SDS011;13339;50.840;4.346;2023-03-23T04:50:52;5.57;;;1.80;;
25409;SDS011;13339;50.840;4.346;2023-03-23T04:53:18;6.23;;;1.67;;
25409;SDS011;13339;50.840;4.346;2023-03-23T04:55:45;7.43;;;1.97;;
25409;SDS011;13339;50.840;4.346;2023-03-23T04:58:12;8.80;;;2.10;;
25409;SDS011;13339;50.840;4.346;2023-03-23T05:00:39;5.97;;;2.50;;
25409;SDS011;13339;50.840;4.346;2023-03-23T05:03:09;6.20;;;1.67;;
25409;SDS011;13339;50.840;4.346;2023-03-23T05:05:35;7.70;;;2.00;;
25409;SDS011;13339;50.840;4.346;2023-03-23T05:08:01;9.47;;;1.80;;
25409;SDS011;13339;50.840;4.346;2023-03-23T05:10:26;7.33;;;1.50;;
25409;SDS011;13339;50.840;4.346;2023-03-23T05:12:52;5.13;;;1.83;;
25409;SDS011;13339;50.840;4.346;2023-03-23T05:15:19;6.33;;;2.03;;
25409;SDS011;13339;50.840;4.346;2023-03-23T05:17:44;4.47;;;1.87;;
25409;SDS011;13339;50.840;4.346;2023-03-23T05:20:10;9.27;;;1.57;;
25409;SDS011;13339;50.840;4.346;2023-03-23T05:22:38;7.17;;;1.63;;
25409;SDS011;13339;50.840;4.346;2023-03-23T05:25:04;7.27;;;2.10;;
25409;SDS011;13339;50.840;4.346;2023-03-23T05:27:33;10.40;;;2.00;;
25409;SDS011;13339;50.840;4.346;2023-03-23T05:30:00;6.13;;;2.83;;
25409;SDS011;13339;50.840;4.346;2023-03-23T05:32:26;5.43;;;2.30;;
25409;SDS011;13339;50.840;4.346;2023-03-23T05:34:54;7.83;;;2.70;;
25409;SDS011;13339;50.840;4.346;2023-03-23T05:37:24;7.37;;;2.20;;
25409;SDS011;13339;50.840;4.346;2023-03-23T05:39:51;7.63;;;2.23;;
25409;SDS011;13339;50.840;4.346;2023-03-23T05:42:20;6.87;;;2.10;;
25409;SDS011;13339;50.840;4.346;2023-03-23T05:44:47;6.67;;;2.27;;
25409;SDS011;13339;50.840;4.346;2023-03-23T05:47:12;5.63;;;2.00;;
25409;SDS011;13339;50.840;4.346;2023-03-23T05:49:39;10.17;;;2.23;;
25409;SDS011;13339;50.840;4.346;2023-03-23T05:52:04;8.03;;;2.40;;
25409;SDS011;13339;50.840;4.346;2023-03-23T05:54:30;8.07;;;2.47;;
25409;SDS011;13339;50.840;4.346;2023-03-23T05:56:55;5.73;;;2.53;;
25409;SDS011;13339;50.840;4.346;2023-03-23T05:59:21;7.23;;;2.43;;
25409;SDS011;13339;50.840;4.346;2023-03-23T06:01:47;9.03;;;2.27;;
25409;SDS011;13339;50.840;4.346;2023-03-23T06:04:13;4.40;;;1.90;;
25409;SDS011;13339;50.840;4.346;2023-03-23T06:06:38;9.23;;;2.17;;
25409;SDS011;13339;50.840;4.346;2023-03-23T06:09:06;9.87;;;2.83;;
25409;SDS011;13339;50.840;4.346;2023-03-23T06:11:32;6.97;;;2.10;;
25409;SDS011;13339;50.840;4.346;2023-03-23T06:13:58;11.17;;;2.17;;
25409;SDS011;13339;50.840;4.346;2023-03-23T06:16:23;15.30;;;2.57;;
25409;SDS011;13339;50.840;4.346;2023-03-23T06:18:50;7.97;;;2.60;;
25409;SDS011;13339;50.840;4.346;2023-03-23T06:21:15;10.60;;;2.57;;
25409;SDS011;13339;50.840;4.346;2023-03-23T06:23:43;4.77;;;1.80;;
25409;SDS011;13339;50.840;4.346;2023-03-23T06:26:10;12.40;;;2.80;;
25409;SDS011;13339;50.840;4.346;2023-03-23T06:28:39;6.80;;;2.10;;
25409;SDS011;13339;50.840;4.346;2023-03-23T06:31:05;12.67;;;2.97;;
25409;SDS011;13339;50.840;4.346;2023-03-23T06:33:35;11.70;;;2.30;;
25409;SDS011;13339;50.840;4.346;2023-03-23T06:36:02;12.33;;;2.80;;
25409;SDS011;13339;50.840;4.346;2023-03-23T06:38:29;9.00;;;2.30;;
25409;SDS011;13339;50.840;4.346;2023-03-23T06:40:55;8.07;;;2.87;;
25409;SDS011;13339;50.840;4.346;2023-03-23T06:43:22;7.93;;;2.40;;
25409;SDS011;13339;50.840;4.346;2023-03-23T06:45:48;12.77;;;3.10;;
25409;SDS011;13339;50.840;4.346;2023-03-23T06:48:15;7.90;;;2.23;;
25409;SDS011;13339;50.840;4.346;2023-03-23T06:50:44;15.97;;;2.30;;
25409;SDS011;13339;50.840;4.346;2023-03-23T06:53:10;8.50;;;2.63;;
25409;SDS011;13339;50.840;4.346;2023-03-23T06:55:36;7.57;;;2.60;;
25409;SDS011;13339;50.840;4.346;2023-03-23T06:58:03;11.67;;;3.13;;
25409;SDS011;13339;50.840;4.346;2023-03-23T07:00:33;10.87;;;2.83;;
25409;SDS011;13339;50.840;4.346;2023-03-23T07:02:59;13.80;;;2.70;;
25409;SDS011;13339;50.840;4.346;2023-03-23T07:05:24;7.80;;;3.20;;
25409;SDS011;13339;50.840;4.346;2023-03-23T07:07:50;11.57;;;3.00;;
25409;SDS011;13339;50.840;4.346;2023-03-23T07:10:16;7.03;;;1.70;;
25409;SDS011;13339;50.840;4.346;2023-03-23T07:12:41;1.83;;;0.90;;
25409;SDS011;13339;50.840;4.346;2023-03-23T07:15:08;5.90;;;1.30;;
25409;SDS011;13339;50.840;4.346;2023-03-23T07:17:36;3.27;;;1.10;;
25409;SDS011;13339;50.840;4.346;2023-03-23T07:20:02;3.67;;;1.07;;
25409;SDS011;13339;50.840;4.346;2023-03-23T07:22:28;3.97;;;1.10;;
25409;SDS011;13339;50.840;4.346;2023-03-23T07:24:54;6.20;;;1.40;;
25409;SDS011;13339;50.840;4.346;2023-03-23T07:27:19;4.07;;;1.20;;
25409;SDS011;13339;50.840;4.346;2023-03-23T07:29:45;4.13;;;1.30;;
25409;SDS011;13339;50.840;4.346;2023-03-23T07:32:11;4.43;;;1.40;;
25409;SDS011;13339;50.840;4.346;2023-03-23T07:34:37;4.33;;;1.30;;
25409;SDS011;13339;50.840;4.346;2023-03-23T07:37:03;3.37;;;1.30;;
25409;SDS011;13339;50.840;4.346;2023-03-23T07:39:30;4.37;;;1.30;;
25409;SDS011;13339;50.840;4.346;2023-03-23T07:41:56;3.20;;;1.53;;
25409;SDS011;13339;50.840;4.346;2023-03-23T07:44:22;5.27;;;1.50;;
25409;SDS011;13339;50.840;4.346;2023-03-23T07:46:47;7.00;;;1.60;;
25409;SDS011;13339;50.840;4.346;2023-03-23T07:49:13;7.80;;;1.80;;
25409;SDS011;13339;50.840;4.346;2023-03-23T07:51:39;5.93;;;2.17;;
25409;SDS011;13339;50.840;4.346;2023-03-23T07:54:05;12.83;;;2.50;;
25409;SDS011;13339;50.840;4.346;2023-03-23T07:56:32;13.43;;;2.40;;
25409;SDS011;13339;50.840;4.346;2023-03-23T07:58:59;9.47;;;2.03;;
25409;SDS011;13339;50.840;4.346;2023-03-23T08:01:25;9.80;;;2.27;;
25409;SDS011;13339;50.840;4.346;2023-03-23T08:03:51;11.97;;;2.50;;
25409;SDS011;13339;50.840;4.346;2023-03-23T08:06:19;5.40;;;1.87;;
25409;SDS011;13339;50.840;4.346;2023-03-23T08:08:46;4.20;;;1.47;;
25409;SDS011;13339;50.840;4.346;2023-03-23T08:11:11;7.30;;;2.17;;
25409;SDS011;13339;50.840;4.346;2023-03-23T08:13:40;6.53;;;1.80;;
25409;SDS011;13339;50.840;4.346;2023-03-23T08:16:06;4.43;;;1.90;;
25409;SDS011;13339;50.840;4.346;2023-03-23T08:18:34;2.77;;;1.20;;
25409;SDS011;13339;50.840;4.346;2023-03-23T08:21:01;6.90;;;1.77;;
25409;SDS011;13339;50.840;4.346;2023-03-23T08:23:29;5.57;;;1.87;;
25409;SDS011;13339;50.840;4.346;2023-03-23T08:25:55;3.17;;;1.30;;
25409;SDS011;13339;50.840;4.346;2023-03-23T08:28:21;3.53;;;1.20;;
25409;SDS011;13339;50.840;4.346;2023-03-23T08:30:47;4.20;;;1.37;;
25409;SDS011;13339;50.840;4.346;2023-03-23T08:33:13;4.47;;;1.33;;
25409;SDS011;13339;50.840;4.346;2023-03-23T08:35:39;4.37;;;1.20;;
25409;SDS011;13339;50.840;4.346;2023-03-23T08:38:05;5.03;;;1.40;;
25409;SDS011;13339;50.840;4.346;2023-03-23T08:40:31;3.33;;;1.23;;
25409;SDS011;13339;50.840;4.346;2023-03-23T08:42:57;4.57;;;1.80;;
25409;SDS011;13339;50.840;4.346;2023-03-23T08:45:24;4.57;;;1.20;;
25409;SDS011;13339;50.840;4.346;2023-03-23T08:47:51;3.90;;;1.50;;
25409;SDS011;13339;50.840;4.346;2023-03-23T08:50:21;5.57;;;1.40;;
25409;SDS011;13339;50.840;4.346;2023-03-23T08:52:51;4.73;;;1.53;;
25409;SDS011;13339;50.840;4.346;2023-03-23T08:55:18;2.10;;;1.40;;
25409;SDS011;13339;50.840;4.346;2023-03-23T08:57:45;6.47;;;2.07;;
25409;SDS011;13339;50.840;4.346;2023-03-23T09:00:12;6.37;;;2.20;;
25409;SDS011;13339;50.840;4.346;2023-03-23T09:02:43;5.83;;;1.80;;
25409;SDS011;13339;50.840;4.346;2023-03-23T09:05:10;5.10;;;1.80;;
25409;SDS011;13339;50.840;4.346;2023-03-23T09:07:37;5.73;;;1.77;;
25409;SDS011;13339;50.840;4.346;2023-03-23T09:10:04;4.20;;;1.60;;
25409;SDS011;13339;50.840;4.346;2023-03-23T09:12:31;8.23;;;1.83;;
25409;SDS011;13339;50.840;4.346;2023-03-23T09:14:57;5.60;;;1.87;;
25409;SDS011;13339;50.840;4.346;2023-03-23T09:17:22;5.23;;;2.10;;
25409;SDS011;13339;50.840;4.346;2023-03-23T09:19:48;4.87;;;1.80;;
25409;SDS011;13339;50.840;4.346;2023-03-23T09:22:13;4.23;;;1.40;;
25409;SDS011;13339;50.840;4.346;2023-03-23T09:24:40;6.37;;;1.93;;
25409;SDS011;13339;50.840;4.346;2023-03-23T09:27:06;7.17;;;1.80;;
25409;SDS011;13339;50.840;4.346;2023-03-23T09:29:31;4.23;;;1.90;;
25409;SDS011;13339;50.840;4.346;2023-03-23T09:31:57;5.93;;;1.70;;
25409;SDS011;13339;50.840;4.346;2023-03-23T09:34:23;4.13;;;1.83;;
25409;SDS011;13339;50.840;4.346;2023-03-23T09:36:48;4.43;;;1.90;;
25409;SDS011;13339;50.840;4.346;2023-03-23T09:39:14;5.70;;;1.93;;
25409;SDS011;13339;50.840;4.346;2023-03-23T09:49:59;5.80;;;1.60;;
25409;SDS011;13339;50.840;4.346;2023-03-23T09:52:55;4.87;;;1.90;;
25409;SDS011;13339;50.840;4.346;2023-03-23T09:55:22;5.47;;;1.70;;
25409;SDS011;13339;50.840;4.346;2023-03-23T10:00:27;5.37;;;1.93;;
25409;SDS011;13339;50.840;4.346;2023-03-23T10:03:13;5.30;;;1.87;;
25409;SDS011;13339;50.840;4.346;2023-03-23T10:05:47;4.80;;;1.87;;
25409;SDS011;13339;50.840;4.346;2023-03-23T10:10:50;5.63;;;2.10;;
25409;SDS011;13339;50.840;4.346;2023-03-23T10:15:57;4.30;;;2.07;;
25409;SDS011;13339;50.840;4.346;2023-03-23T10:18:38;6.10;;;2.37;;
25409;SDS011;13339;50.840;4.346;2023-03-23T10:21:13;8.10;;;2.40;;
25409;SDS011;13339;50.840;4.346;2023-03-23T10:32:00;5.43;;;2.53;;
25409;SDS011;13339;50.840;4.346;2023-03-23T10:34:35;9.03;;;3.10;;
25409;SDS011;13339;50.840;4.346;2023-03-23T10:37:38;5.17;;;2.60;;
25409;SDS011;13339;50.840;4.346;2023-03-23T10:40:27;4.73;;;2.30;;
25409;SDS011;13339;50.840;4.346;2023-03-23T10:42:54;5.80;;;2.43;;
25409;SDS011;13339;50.840;4.346;2023-03-23T10:45:26;7.40;;;2.90;;
25409;SDS011;13339;50.840;4.346;2023-03-23T10:50:42;12.30;;;3.17;;
25409;SDS011;13339;50.840;4.346;2023-03-23T10:53:19;6.83;;;2.87;;
25409;SDS011;13339;50.840;4.346;2023-03-23T10:55:48;9.00;;;2.60;;
25409;SDS011;13339;50.840;4.346;2023-03-23T11:01:09;6.00;;;3.00;;
25409;SDS011;13339;50.840;4.346;2023-03-23T11:06:06;8.17;;;2.33;;
25409;SDS011;13339;50.840;4.346;2023-03-23T11:08:56;9.80;;;2.93;;
25409;SDS011;13339;50.840;4.346;2023-03-23T11:11:28;7.40;;;2.83;;
25409;SDS011;13339;50.840;4.346;2023-03-23T11:14:18;7.67;;;2.83;;
25409;SDS011;13339;50.840;4.346;2023-03-23T11:16:54;11.90;;;3.57;;
25409;SDS011;13339;50.840;4.346;2023-03-23T11:19:22;10.60;;;3.23;;
25409;SDS011;13339;50.840;4.346;2023-03-23T11:21:51;9.40;;;3.13;;
25409;SDS011;13339;50.840;4.346;2023-03-23T11:24:22;10.90;;;3.20;;
25409;SDS011;13339;50.840;4.346;2023-03-23T11:26:50;12.57;;;3.03;;
25409;SDS011;13339;50.840;4.346;2023-03-23T11:29:22;9.63;;;3.00;;
25409;SDS011;13339;50.840;4.346;2023-03-23T11:31:53;8.97;;;3.00;;
25409;SDS011;13339;50.840;4.346;2023-03-23T11:34:42;9.07;;;2.63;;
25409;SDS011;13339;50.840;4.346;2023-03-23T11:37:14;8.90;;;2.80;;
25409;SDS011;13339;50.840;4.346;2023-03-23T11:39:48;5.30;;;2.33;;
25409;SDS011;13339;50.840;4.346;2023-03-23T11:42:23;11.40;;;2.63;;
25409;SDS011;13339;50.840;4.346;2023-03-23T11:44:54;8.20;;;3.40;;
25409;SDS011;13339;50.840;4.346;2023-03-23T11:51:11;8.33;;;2.50;;
25409;SDS011;13339;50.840;4.346;2023-03-23T11:53:50;13.20;;;2.67;;
25409;SDS011;13339;50.840;4.346;2023-03-23T11:58:56;6.80;;;2.47;;
25409;SDS011;13339;50.840;4.346;2023-03-23T12:01:28;5.63;;;2.50;;
25409;SDS011;13339;50.840;4.346;2023-03-23T12:21:25;6.30;;;2.37;;
25409;SDS011;13339;50.840;4.346;2023-03-23T12:48:46;8.13;;;2.73;;
25409;SDS011;13339;50.840;4.346;2023-03-23T12:54:01;9.97;;;2.80;;
25409;SDS011;13339;50.840;4.346;2023-03-23T12:56:35;17.47;;;3.40;;
25409;SDS011;13339;50.840;4.346;2023-03-23T12:59:22;9.70;;;3.17;;
25409;SDS011;13339;50.840;4.346;2023-03-23T13:01:50;11.73;;;2.90;;
25409;SDS011;13339;50.840;4.346;2023-03-23T13:04:23;9.93;;;2.77;;
25409;SDS011;13339;50.840;4.346;2023-03-23T13:06:55;6.10;;;2.67;;
25409;SDS011;13339;50.840;4.346;2023-03-23T13:12:08;6.53;;;2.40;;
25409;SDS011;13339;50.840;4.346;2023-03-23T13:17:33;13.40;;;3.17;;
25409;SDS011;13339;50.840;4.346;2023-03-23T13:20:15;9.40;;;3.20;;
25409;SDS011;13339;50.840;4.346;2023-03-23T13:25:59;9.83;;;2.40;;
25409;SDS011;13339;50.840;4.346;2023-03-23T13:28:30;11.20;;;2.90;;
25409;SDS011;13339;50.840;4.346;2023-03-23T13:33:29;10.07;;;2.30;;
25409;SDS011;13339;50.840;4.346;2023-03-23T13:36:01;10.23;;;2.87;;
25409;SDS011;13339;50.840;4.346;2023-03-23T13:38:31;9.20;;;3.13;;
25409;SDS011;13339;50.840;4.346;2023-03-23T13:40:58;11.43;;;2.70;;
25409;SDS011;13339;50.840;4.346;2023-03-23T13:43:35;8.03;;;2.73;;
25409;SDS011;13339;50.840;4.346;2023-03-23T13:46:46;6.60;;;2.60;;
25409;SDS011;13339;50.840;4.346;2023-03-23T13:49:04;10.23;;;2.93;;
25409;SDS011;13339;50.840;4.346;2023-03-23T13:51:52;8.93;;;2.87;;
25409;SDS011;13339;50.840;4.346;2023-03-23T13:54:41;11.37;;;2.57;;
25409;SDS011;13339;50.840;4.346;2023-03-23T14:00:10;13.73;;;3.20;;
25409;SDS011;13339;50.840;4.346;2023-03-23T14:03:02;8.83;;;2.83;;
25409;SDS011;13339;50.840;4.346;2023-03-23T14:05:39;12.60;;;2.73;;
25409;SDS011;13339;50.840;4.346;2023-03-23T14:13:23;12.27;;;2.77;;
25409;SDS011;13339;50.840;4.346;2023-03-23T14:18:31;11.30;;;2.70;;
25409;SDS011;13339;50.840;4.346;2023-03-23T14:21:02;11.00;;;3.20;;
25409;SDS011;13339;50.840;4.346;2023-03-23T14:23:30;15.47;;;3.30;;
25409;SDS011;13339;50.840;4.346;2023-03-23T14:25:59;7.67;;;3.00;;
25409;SDS011;13339;50.840;4.346;2023-03-23T14:28:30;14.20;;;3.40;;
25409;SDS011;13339;50.840;4.346;2023-03-23T14:30:57;12.30;;;3.83;;
25409;SDS011;13339;50.840;4.346;2023-03-23T14:33:24;10.37;;;3.33;;
25409;SDS011;13339;50.840;4.346;2023-03-23T14:35:51;12.50;;;3.90;;
25409;SDS011;13339;50.840;4.346;2023-03-23T14:38:21;9.83;;;3.50;;
25409;SDS011;13339;50.840;4.346;2023-03-23T14:40:59;11.80;;;4.00;;
25409;SDS011;13339;50.840;4.346;2023-03-23T14:43:28;5.70;;;2.67;;
25409;SDS011;13339;50.840;4.346;2023-03-23T14:45:55;12.17;;;3.07;;
25409;SDS011;13339;50.840;4.346;2023-03-23T14:48:23;10.13;;;2.57;;
25409;SDS011;13339;50.840;4.346;2023-03-23T14:50:51;8.40;;;2.40;;
25409;SDS011;13339;50.840;4.346;2023-03-23T14:53:37;9.13;;;2.80;;
25409;SDS011;13339;50.840;4.346;2023-03-23T14:56:11;18.50;;;3.43;;
25409;SDS011;13339;50.840;4.346;2023-03-23T14:58:47;11.07;;;2.93;;
25409;SDS011;13339;50.840;4.346;2023-03-23T15:01:18;9.10;;;3.03;;
25409;SDS011;13339;50.840;4.346;2023-03-23T15:06:29;8.33;;;2.67;;
25409;SDS011;13339;50.840;4.346;2023-03-23T15:09:00;9.17;;;2.90;;
25409;SDS011;13339;50.840;4.346;2023-03-23T15:11:35;12.00;;;3.17;;
25409;SDS011;13339;50.840;4.346;2023-03-23T15:14:18;11.23;;;3.57;;
25409;SDS011;13339;50.840;4.346;2023-03-23T15:16:47;10.77;;;3.27;;
25409;SDS011;13339;50.840;4.346;2023-03-23T15:19:19;9.93;;;3.60;;
25409;SDS011;13339;50.840;4.346;2023-03-23T15:24:41;15.97;;;6.93;;
25409;SDS011;13339;50.840;4.346;2023-03-23T15:29:52;14.60;;;5.70;;
25409;SDS011;13339;50.840;4.346;2023-03-23T15:32:23;12.47;;;5.03;;
25409;SDS011;13339;50.840;4.346;2023-03-23T15:35:12;14.90;;;4.67;;
25409;SDS011;13339;50.840;4.346;2023-03-23T15:37:45;13.93;;;4.13;;
25409;SDS011;13339;50.840;4.346;2023-03-23T15:40:14;8.30;;;3.33;;
25409;SDS011;13339;50.840;4.346;2023-03-23T15:42:43;11.30;;;3.60;;
25409;SDS011;13339;50.840;4.346;2023-03-23T15:50:31;14.33;;;3.80;;
25409;SDS011;13339;50.840;4.346;2023-03-23T15:52:58;12.87;;;3.17;;
25409;SDS011;13339;50.840;4.346;2023-03-23T15:55:27;10.83;;;3.60;;
25409;SDS011;13339;50.840;4.346;2023-03-23T15:57:56;10.70;;;3.57;;
25409;SDS011;13339;50.840;4.346;2023-03-23T16:00:24;7.30;;;3.53;;
25409;SDS011;13339;50.840;4.346;2023-03-23T16:02:54;11.90;;;3.87;;
25409;SDS011;13339;50.840;4.346;2023-03-23T16:05:23;9.33;;;3.20;;
25409;SDS011;13339;50.840;4.346;2023-03-23T16:07:49;8.30;;;2.80;;
25409;SDS011;13339;50.840;4.346;2023-03-23T16:10:17;13.57;;;2.30;;
25409;SDS011;13339;50.840;4.346;2023-03-23T16:12:44;13.70;;;2.77;;
25409;SDS011;13339;50.840;4.346;2023-03-23T16:15:11;7.07;;;2.20;;
25409;SDS011;13339;50.840;4.346;2023-03-23T16:17:38;8.30;;;2.23;;
25409;SDS011;13339;50.840;4.346;2023-03-23T16:20:10;12.70;;;2.80;;
25409;SDS011;13339;50.840;4.346;2023-03-23T16:22:41;11.87;;;3.00;;
25409;SDS011;13339;50.840;4.346;2023-03-23T16:25:08;9.63;;;3.53;;
25409;SDS011;13339;50.840;4.346;2023-03-23T16:27:34;12.47;;;3.60;;
25409;SDS011;13339;50.840;4.346;2023-03-23T16:30:00;12.43;;;3.43;;
25409;SDS011;13339;50.840;4.346;2023-03-23T16:32:27;10.67;;;3.53;;
25409;SDS011;13339;50.840;4.346;2023-03-23T16:34:53;11.07;;;3.93;;
25409;SDS011;13339;50.840;4.346;2023-03-23T16:37:19;13.47;;;4.90;;
25409;SDS011;13339;50.840;4.346;2023-03-23T16:39:45;12.43;;;4.97;;
25409;SDS011;13339;50.840;4.346;2023-03-23T16:42:11;17.83;;;4.20;;
25409;SDS011;13339;50.840;4.346;2023-03-23T16:44:36;13.80;;;4.33;;
25409;SDS011;13339;50.840;4.346;2023-03-23T16:47:02;14.90;;;4.30;;
25409;SDS011;13339;50.840;4.346;2023-03-23T16:49:28;10.83;;;3.30;;
25409;SDS011;13339;50.840;4.346;2023-03-23T16:51:53;13.93;;;3.93;;
25409;SDS011;13339;50.840;4.346;2023-03-23T16:54:19;8.70;;;3.20;;
25409;SDS011;13339;50.840;4.346;2023-03-23T16:56:45;11.50;;;3.63;;
25409;SDS011;13339;50.840;4.346;2023-03-23T16:59:13;11.47;;;3.73;;
25409;SDS011;13339;50.840;4.346;2023-03-23T17:01:38;13.27;;;4.00;;
25409;SDS011;13339;50.840;4.346;2023-03-23T17:04:05;10.63;;;3.73;;
25409;SDS011;13339;50.840;4.346;2023-03-23T17:06:31;10.50;;;3.50;;
25409;SDS011;13339;50.840;4.346;2023-03-23T17:08:57;12.03;;;3.30;;
25409;SDS011;13339;50.840;4.346;2023-03-23T17:11:22;13.27;;;3.57;;
25409;SDS011;13339;50.840;4.346;2023-03-23T17:13:48;9.33;;;3.30;;
25409;SDS011;13339;50.840;4.346;2023-03-23T17:16:14;9.43;;;3.30;;